Terminal Aerodrome Forecast
Issued by NWS Wilmington, OH

Current Version | Previous Version | Text Only | Print | Product List | Glossary Off
Versions: 1 2 3 4 5 6 7 8 9 10 11 12 13 14 15 16 17 18 19 20 21 22 23 24 25

000
FTUS41 KILN 011700
TAFCVG
TAF
KCVG 011739Z 0118/0224 VRB03KT P6SM SCT015 OVC030
      TEMPO 0120/0123 24006KT 5SM -RA BKN018
     FM012300 28006KT P6SM VCSH OVC020
      TEMPO 0123/0202 1SM -SNPL OVC009
     FM020400 30008KT P6SM OVC015
     FM021400 36005KT P6SM SCT020
      TEMPO 0215/0219 BKN020=

USA.gov is the U.S. government's official web portal to all federal, state and local government web resources and services.